sensor_id;sensor_type;location;lat;lon;timestamp;pressure;altitude;pressure_sealevel;temperature;humidity
61026;BME280;46911;32.650;-16.902;2023-03-13T00:00:40;101978.66;;;17.66;73.37
61026;BME280;46911;32.650;-16.902;2023-03-13T00:02:44;101984.38;;;17.50;73.75
61026;BME280;46911;32.650;-16.902;2023-03-13T00:04:45;101971.84;;;17.37;74.13
61026;BME280;46911;32.650;-16.902;2023-03-13T00:06:46;101976.97;;;17.29;74.49
61026;BME280;46911;32.650;-16.902;2023-03-13T00:08:46;101980.66;;;17.28;73.49
61026;BME280;46911;32.650;-16.902;2023-03-13T00:10:50;101998.06;;;17.35;73.24
61026;BME280;46911;32.650;-16.902;2023-03-13T00:12:51;101980.41;;;17.31;73.64
61026;BME280;46911;32.650;-16.902;2023-03-13T00:14:52;101993.44;;;17.37;74.36
61026;BME280;46911;32.650;-16.902;2023-03-13T00:16:53;101994.16;;;17.39;74.89
61026;BME280;46911;32.650;-16.902;2023-03-13T00:18:57;101980.66;;;17.28;74.71
61026;BME280;46911;32.650;-16.902;2023-03-13T00:21:06;101980.13;;;17.23;74.80
61026;BME280;46911;32.650;-16.902;2023-03-13T00:23:09;102000.56;;;17.38;74.78
61026;BME280;46911;32.650;-16.902;2023-03-13T00:25:10;101992.22;;;17.42;75.03
61026;BME280;46911;32.650;-16.902;2023-03-13T00:27:11;101990.97;;;17.34;75.59
61026;BME280;46911;32.650;-16.902;2023-03-13T00:29:14;101969.81;;;17.17;75.39
61026;BME280;46911;32.650;-16.902;2023-03-13T00:31:22;101961.13;;;17.13;75.84
61026;BME280;46911;32.650;-16.902;2023-03-13T00:33:23;101977.41;;;17.12;75.66
61026;BME280;46911;32.650;-16.902;2023-03-13T00:35:30;101976.28;;;17.14;75.84
61026;BME280;46911;32.650;-16.902;2023-03-13T00:37:33;101973.19;;;17.07;76.40
61026;BME280;46911;32.650;-16.902;2023-03-13T00:39:34;101984.75;;;17.10;76.69
61026;BME280;46911;32.650;-16.902;2023-03-13T00:41:38;101995.00;;;17.04;76.48
61026;BME280;46911;32.650;-16.902;2023-03-13T00:43:43;101973.06;;;16.85;75.45
61026;BME280;46911;32.650;-16.902;2023-03-13T00:45:45;101999.16;;;16.97;74.41
61026;BME280;46911;32.650;-16.902;2023-03-13T00:47:48;101985.03;;;16.81;73.60
61026;BME280;46911;32.650;-16.902;2023-03-13T00:49:49;101973.00;;;16.73;73.32
61026;BME280;46911;32.650;-16.902;2023-03-13T00:51:55;101971.75;;;16.66;73.82
61026;BME280;46911;32.650;-16.902;2023-03-13T00:53:57;101979.72;;;16.68;72.84
61026;BME280;46911;32.650;-16.902;2023-03-13T00:58:08;101987.56;;;16.71;71.00
61026;BME280;46911;32.650;-16.902;2023-03-13T01:00:10;101972.59;;;16.43;71.67
61026;BME280;46911;32.650;-16.902;2023-03-13T01:02:14;101970.84;;;16.42;71.37
61026;BME280;46911;32.650;-16.902;2023-03-13T01:04:17;101960.03;;;16.30;72.27
61026;BME280;46911;32.650;-16.902;2023-03-13T01:06:24;101970.88;;;16.29;72.35
61026;BME280;46911;32.650;-16.902;2023-03-13T01:08:26;101959.50;;;16.12;72.95
61026;BME280;46911;32.650;-16.902;2023-03-13T01:10:30;101958.53;;;16.13;73.87
61026;BME280;46911;32.650;-16.902;2023-03-13T01:12:31;101972.41;;;16.20;74.72
61026;BME280;46911;32.650;-16.902;2023-03-13T01:14:32;101975.00;;;16.21;75.29
61026;BME280;46911;32.650;-16.902;2023-03-13T01:16:36;101958.84;;;16.09;75.46
61026;BME280;46911;32.650;-16.902;2023-03-13T01:18:41;101967.56;;;16.12;75.33
61026;BME280;46911;32.650;-16.902;2023-03-13T01:20:45;101957.69;;;16.00;74.64
61026;BME280;46911;32.650;-16.902;2023-03-13T01:22:49;101950.03;;;16.06;74.69
61026;BME280;46911;32.650;-16.902;2023-03-13T01:24:52;101975.53;;;16.14;74.43
61026;BME280;46911;32.650;-16.902;2023-03-13T01:26:53;101971.00;;;16.27;73.88
61026;BME280;46911;32.650;-16.902;2023-03-13T01:28:59;101971.34;;;16.22;72.81
61026;BME280;46911;32.650;-16.902;2023-03-13T01:31:16;101968.00;;;16.19;72.69
61026;BME280;46911;32.650;-16.902;2023-03-13T01:33:20;101965.72;;;16.13;72.68
61026;BME280;46911;32.650;-16.902;2023-03-13T01:35:21;101971.34;;;16.10;73.14
61026;BME280;46911;32.650;-16.902;2023-03-13T01:37:22;101969.84;;;16.05;73.26
61026;BME280;46911;32.650;-16.902;2023-03-13T01:39:25;101958.66;;;15.86;73.17
61026;BME280;46911;32.650;-16.902;2023-03-13T01:41:29;101947.28;;;15.82;72.94
61026;BME280;46911;32.650;-16.902;2023-03-13T01:43:35;101962.13;;;15.88;71.77
61026;BME280;46911;32.650;-16.902;2023-03-13T01:46:08;101969.97;;;15.91;71.36
61026;BME280;46911;32.650;-16.902;2023-03-13T01:48:20;101946.16;;;15.72;71.35
61026;BME280;46911;32.650;-16.902;2023-03-13T01:50:22;101951.44;;;15.73;71.23
61026;BME280;46911;32.650;-16.902;2023-03-13T01:52:31;101948.50;;;15.77;70.91
61026;BME280;46911;32.650;-16.902;2023-03-13T01:58:57;101941.97;;;15.68;70.71
61026;BME280;46911;32.650;-16.902;2023-03-13T02:01:02;101965.53;;;15.77;70.62
61026;BME280;46911;32.650;-16.902;2023-03-13T02:03:07;101944.75;;;15.66;70.86
61026;BME280;46911;32.650;-16.902;2023-03-13T02:05:16;101963.16;;;15.72;71.19
61026;BME280;46911;32.650;-16.902;2023-03-13T02:07:24;101960.47;;;15.72;71.51
61026;BME280;46911;32.650;-16.902;2023-03-13T02:09:33;101938.06;;;15.59;72.07
61026;BME280;46911;32.650;-16.902;2023-03-13T02:13:50;101962.53;;;15.69;72.63
61026;BME280;46911;32.650;-16.902;2023-03-13T02:15:56;101942.72;;;15.57;72.66
61026;BME280;46911;32.650;-16.902;2023-03-13T02:18:00;101952.06;;;15.64;72.51
61026;BME280;46911;32.650;-16.902;2023-03-13T02:20:06;101944.44;;;15.58;72.68
61026;BME280;46911;32.650;-16.902;2023-03-13T02:24:47;101961.09;;;15.63;72.64
61026;BME280;46911;32.650;-16.902;2023-03-13T02:26:56;101981.56;;;15.79;72.51
61026;BME280;46911;32.650;-16.902;2023-03-13T02:29:00;101973.50;;;15.79;71.64
61026;BME280;46911;32.650;-16.902;2023-03-13T02:31:01;101979.72;;;15.79;71.61
61026;BME280;46911;32.650;-16.902;2023-03-13T02:33:06;101973.28;;;15.82;71.39
61026;BME280;46911;32.650;-16.902;2023-03-13T02:35:11;101966.38;;;15.78;71.12
61026;BME280;46911;32.650;-16.902;2023-03-13T02:37:17;101959.28;;;15.77;71.28
61026;BME280;46911;32.650;-16.902;2023-03-13T02:39:23;101980.19;;;15.86;71.43
61026;BME280;46911;32.650;-16.902;2023-03-13T02:41:26;101966.72;;;15.73;71.89
61026;BME280;46911;32.650;-16.902;2023-03-13T02:43:34;101948.19;;;15.68;72.20
61026;BME280;46911;32.650;-16.902;2023-03-13T02:45:36;101956.06;;;15.71;72.48
61026;BME280;46911;32.650;-16.902;2023-03-13T02:47:42;101973.50;;;15.79;72.65
61026;BME280;46911;32.650;-16.902;2023-03-13T02:49:46;101940.34;;;15.65;72.92
61026;BME280;46911;32.650;-16.902;2023-03-13T02:51:53;101946.38;;;15.69;72.98
61026;BME280;46911;32.650;-16.902;2023-03-13T02:53:59;101949.63;;;15.74;73.23
61026;BME280;46911;32.650;-16.902;2023-03-13T02:56:02;101953.03;;;15.76;73.42
61026;BME280;46911;32.650;-16.902;2023-03-13T02:58:06;101935.09;;;15.64;73.61
61026;BME280;46911;32.650;-16.902;2023-03-13T03:00:10;101931.63;;;15.62;74.03
61026;BME280;46911;32.650;-16.902;2023-03-13T03:02:16;101915.28;;;15.65;74.28
61026;BME280;46911;32.650;-16.902;2023-03-13T03:04:21;101920.13;;;15.60;74.58
61026;BME280;46911;32.650;-16.902;2023-03-13T03:06:27;101935.41;;;15.72;74.71
61026;BME280;46911;32.650;-16.902;2023-03-13T03:08:31;101933.47;;;15.74;75.07
61026;BME280;46911;32.650;-16.902;2023-03-13T03:10:37;101935.06;;;15.77;75.42
61026;BME280;46911;32.650;-16.902;2023-03-13T03:12:38;101927.22;;;15.73;75.56
61026;BME280;46911;32.650;-16.902;2023-03-13T03:14:39;101913.69;;;15.62;75.71
61026;BME280;46911;32.650;-16.902;2023-03-13T03:16:41;101913.13;;;15.57;75.82
61026;BME280;46911;32.650;-16.902;2023-03-13T03:18:49;101936.34;;;15.71;75.68
61026;BME280;46911;32.650;-16.902;2023-03-13T03:20:53;101924.75;;;15.70;75.79
61026;BME280;46911;32.650;-16.902;2023-03-13T03:22:54;101924.44;;;15.62;75.49
61026;BME280;46911;32.650;-16.902;2023-03-13T03:24:55;101928.63;;;15.66;75.32
61026;BME280;46911;32.650;-16.902;2023-03-13T03:27:03;101942.94;;;15.80;74.92
61026;BME280;46911;32.650;-16.902;2023-03-13T03:29:16;101934.56;;;15.71;75.20
61026;BME280;46911;32.650;-16.902;2023-03-13T03:31:17;101920.25;;;15.58;75.10
61026;BME280;46911;32.650;-16.902;2023-03-13T03:33:25;101929.81;;;15.62;75.47
61026;BME280;46911;32.650;-16.902;2023-03-13T03:35:29;101923.00;;;15.56;75.64
61026;BME280;46911;32.650;-16.902;2023-03-13T03:37:36;101927.25;;;15.61;75.82
61026;BME280;46911;32.650;-16.902;2023-03-13T03:39:38;101922.94;;;15.58;75.91
61026;BME280;46911;32.650;-16.902;2023-03-13T03:41:43;101926.13;;;15.63;76.26
61026;BME280;46911;32.650;-16.902;2023-03-13T03:43:45;101916.78;;;15.56;76.11
61026;BME280;46911;32.650;-16.902;2023-03-13T03:45:50;101929.47;;;15.67;76.05
61026;BME280;46911;32.650;-16.902;2023-03-13T03:47:51;101913.25;;;15.55;76.49
61026;BME280;46911;32.650;-16.902;2023-03-13T03:49:52;101927.66;;;15.67;76.74
61026;BME280;46911;32.650;-16.902;2023-03-13T03:51:55;101903.44;;;15.54;77.04
61026;BME280;46911;32.650;-16.902;2023-03-13T03:54:03;101920.34;;;15.69;77.42
61026;BME280;46911;32.650;-16.902;2023-03-13T03:56:06;101894.72;;;15.51;77.88
61026;BME280;46911;32.650;-16.902;2023-03-13T03:58:15;101900.09;;;15.51;78.51
61026;BME280;46911;32.650;-16.902;2023-03-13T04:00:34;101903.25;;;15.45;78.58
61026;BME280;46911;32.650;-16.902;2023-03-13T04:02:35;101899.78;;;15.43;79.33
61026;BME280;46911;32.650;-16.902;2023-03-13T04:04:38;101914.84;;;15.45;79.49
61026;BME280;46911;32.650;-16.902;2023-03-13T04:06:52;101922.59;;;15.50;80.02
61026;BME280;46911;32.650;-16.902;2023-03-13T04:08:57;101901.19;;;15.35;80.13
61026;BME280;46911;32.650;-16.902;2023-03-13T04:11:01;101929.13;;;15.46;80.52
61026;BME280;46911;32.650;-16.902;2023-03-13T04:13:13;101908.72;;;15.30;80.61
61026;BME280;46911;32.650;-16.902;2023-03-13T04:15:19;101929.38;;;15.43;80.89
61026;BME280;46911;32.650;-16.902;2023-03-13T04:17:20;101924.00;;;15.43;80.91
61026;BME280;46911;32.650;-16.902;2023-03-13T04:19:22;101902.56;;;15.28;81.07
61026;BME280;46911;32.650;-16.902;2023-03-13T04:21:25;101906.75;;;15.32;81.02
61026;BME280;46911;32.650;-16.902;2023-03-13T04:23:41;101926.78;;;15.41;81.08
61026;BME280;46911;32.650;-16.902;2023-03-13T04:25:46;101922.38;;;15.40;81.13
61026;BME280;46911;32.650;-16.902;2023-03-13T04:27:48;101889.25;;;15.27;81.15
61026;BME280;46911;32.650;-16.902;2023-03-13T04:29:49;101898.38;;;15.24;81.20
61026;BME280;46911;32.650;-16.902;2023-03-13T04:32:11;101922.03;;;15.32;81.04
61026;BME280;46911;32.650;-16.902;2023-03-13T04:34:40;101913.88;;;15.33;81.18
61026;BME280;46911;32.650;-16.902;2023-03-13T04:36:49;101911.19;;;15.33;81.19
61026;BME280;46911;32.650;-16.902;2023-03-13T04:39:11;101919.25;;;15.33;81.10
61026;BME280;46911;32.650;-16.902;2023-03-13T04:41:40;101885.38;;;15.18;81.06
61026;BME280;46911;32.650;-16.902;2023-03-13T04:44:02;101910.63;;;15.28;80.88
61026;BME280;46911;32.650;-16.902;2023-03-13T04:46:03;101900.31;;;15.22;80.67
61026;BME280;46911;32.650;-16.902;2023-03-13T04:48:27;101916.88;;;15.29;80.77
61026;BME280;46911;32.650;-16.902;2023-03-13T04:50:54;101897.19;;;15.15;80.51
61026;BME280;46911;32.650;-16.902;2023-03-13T04:53:23;101914.19;;;15.29;80.02
61026;BME280;46911;32.650;-16.902;2023-03-13T04:55:54;101920.53;;;15.28;79.49
61026;BME280;46911;32.650;-16.902;2023-03-13T04:58:16;101906.09;;;15.16;79.39
61026;BME280;46911;32.650;-16.902;2023-03-13T05:00:39;101902.34;;;15.18;79.12
61026;BME280;46911;32.650;-16.902;2023-03-13T05:03:08;101909.78;;;15.28;78.41
61026;BME280;46911;32.650;-16.902;2023-03-13T05:05:22;101911.19;;;15.33;77.83
61026;BME280;46911;32.650;-16.902;2023-03-13T05:07:35;101923.75;;;15.46;77.20
61026;BME280;46911;32.650;-16.902;2023-03-13T05:09:58;101896.78;;;15.34;77.18
61026;BME280;46911;32.650;-16.902;2023-03-13T05:12:43;101899.34;;;15.36;77.02
61026;BME280;46911;32.650;-16.902;2023-03-13T05:14:51;101900.13;;;15.38;77.28
61026;BME280;46911;32.650;-16.902;2023-03-13T05:17:11;101926.03;;;15.52;77.23
61026;BME280;46911;32.650;-16.902;2023-03-13T05:19:47;101911.50;;;15.42;77.36
61026;BME280;46911;32.650;-16.902;2023-03-13T05:22:11;101921.97;;;15.46;77.29
61026;BME280;46911;32.650;-16.902;2023-03-13T05:24:30;101905.69;;;15.35;77.43
61026;BME280;46911;32.650;-16.902;2023-03-13T05:26:33;101912.03;;;15.34;77.35
61026;BME280;46911;32.650;-16.902;2023-03-13T05:28:57;101908.91;;;15.27;77.63
61026;BME280;46911;32.650;-16.902;2023-03-13T05:31:11;101930.66;;;15.37;78.07
61026;BME280;46911;32.650;-16.902;2023-03-13T05:33:35;101914.38;;;15.26;78.15
61026;BME280;46911;32.650;-16.902;2023-03-13T05:35:46;101919.22;;;15.20;78.38
61026;BME280;46911;32.650;-16.902;2023-03-13T05:37:56;101927.81;;;15.26;78.38
61026;BME280;46911;32.650;-16.902;2023-03-13T05:40:19;101906.31;;;15.13;78.48
61026;BME280;46911;32.650;-16.902;2023-03-13T05:42:55;101932.13;;;15.28;78.26
61026;BME280;46911;32.650;-16.902;2023-03-13T05:45:18;101932.34;;;15.25;78.19
61026;BME280;46911;32.650;-16.902;2023-03-13T05:47:38;101960.13;;;15.38;78.35
61026;BME280;46911;32.650;-16.902;2023-03-13T05:49:52;101942.44;;;15.21;78.29
61026;BME280;46911;32.650;-16.902;2023-03-13T05:52:25;101957.72;;;15.34;78.60
61026;BME280;46911;32.650;-16.902;2023-03-13T05:54:58;101938.81;;;15.22;78.68
61026;BME280;46911;32.650;-16.902;2023-03-13T05:57:20;101964.94;;;15.33;78.92
61026;BME280;46911;32.650;-16.902;2023-03-13T05:59:38;101959.56;;;15.33;79.09
61026;BME280;46911;32.650;-16.902;2023-03-13T06:01:58;101940.53;;;15.23;79.33
61026;BME280;46911;32.650;-16.902;2023-03-13T06:04:08;101943.34;;;15.22;79.36
61026;BME280;46911;32.650;-16.902;2023-03-13T06:06:13;101940.53;;;15.23;79.12
61026;BME280;46911;32.650;-16.902;2023-03-13T06:08:21;101940.72;;;15.20;79.29
61026;BME280;46911;32.650;-16.902;2023-03-13T06:10:25;101959.00;;;15.28;79.60
61026;BME280;46911;32.650;-16.902;2023-03-13T06:12:28;101961.81;;;15.27;79.46
61026;BME280;46911;32.650;-16.902;2023-03-13T06:14:31;101941.81;;;15.18;79.38
61026;BME280;46911;32.650;-16.902;2023-03-13T06:17:04;101949.78;;;15.19;79.35
61026;BME280;46911;32.650;-16.902;2023-03-13T06:19:08;101941.91;;;15.16;78.97
61026;BME280;46911;32.650;-16.902;2023-03-13T06:21:12;101972.34;;;15.30;79.04
61026;BME280;46911;32.650;-16.902;2023-03-13T06:23:13;101970.53;;;15.30;78.73
61026;BME280;46911;32.650;-16.902;2023-03-13T06:25:13;101968.03;;;15.27;79.02
61026;BME280;46911;32.650;-16.902;2023-03-13T06:27:17;101973.41;;;15.27;79.18
61026;BME280;46911;32.650;-16.902;2023-03-13T06:29:20;101967.59;;;15.20;79.10
61026;BME280;46911;32.650;-16.902;2023-03-13T06:31:25;101980.63;;;15.27;78.79
61026;BME280;46911;32.650;-16.902;2023-03-13T06:33:28;101985.16;;;15.26;78.52
61026;BME280;46911;32.650;-16.902;2023-03-13T06:35:30;101984.59;;;15.21;78.42
61026;BME280;46911;32.650;-16.902;2023-03-13T06:37:34;101970.16;;;15.09;78.02
61026;BME280;46911;32.650;-16.902;2023-03-13T06:39:35;101992.44;;;15.24;77.91
61026;BME280;46911;32.650;-16.902;2023-03-13T06:41:36;101988.25;;;15.20;77.46
61026;BME280;46911;32.650;-16.902;2023-03-13T06:43:37;101988.47;;;15.17;77.81
61026;BME280;46911;32.650;-16.902;2023-03-13T06:45:42;101979.28;;;15.06;77.92
61026;BME280;46911;32.650;-16.902;2023-03-13T06:47:45;101991.25;;;15.15;77.66
61026;BME280;46911;32.650;-16.902;2023-03-13T06:49:48;101998.25;;;15.18;77.46
61026;BME280;46911;32.650;-16.902;2023-03-13T06:51:52;101985.63;;;15.05;77.53
61026;BME280;46911;32.650;-16.902;2023-03-13T06:53:55;101982.19;;;15.03;77.27
61026;BME280;46911;32.650;-16.902;2023-03-13T06:55:59;101997.47;;;15.16;77.53
61026;BME280;46911;32.650;-16.902;2023-03-13T06:58:01;102006.50;;;15.15;77.41
61026;BME280;46911;32.650;-16.902;2023-03-13T07:00:02;102004.03;;;15.12;77.34
61026;BME280;46911;32.650;-16.902;2023-03-13T07:02:05;101999.06;;;15.05;77.24
61026;BME280;46911;32.650;-16.902;2023-03-13T07:04:10;102002.81;;;15.03;77.03
61026;BME280;46911;32.650;-16.902;2023-03-13T07:06:12;102012.19;;;15.10;77.11
61026;BME280;46911;32.650;-16.902;2023-03-13T07:08:13;102005.84;;;15.11;76.86
61026;BME280;46911;32.650;-16.902;2023-03-13T07:10:13;102021.63;;;15.30;76.22
61026;BME280;46911;32.650;-16.902;2023-03-13T07:12:14;102025.03;;;15.32;75.92
61026;BME280;46911;32.650;-16.902;2023-03-13T07:14:16;102023.13;;;15.34;75.59
61026;BME280;46911;32.650;-16.902;2023-03-13T07:16:17;102028.63;;;15.33;75.31
61026;BME280;46911;32.650;-16.902;2023-03-13T07:18:23;102009.75;;;15.20;74.91
61026;BME280;46911;32.650;-16.902;2023-03-13T07:20:26;102020.41;;;15.21;75.01
61026;BME280;46911;32.650;-16.902;2023-03-13T07:22:29;102023.97;;;15.22;75.08
61026;BME280;46911;32.650;-16.902;2023-03-13T07:24:30;102028.47;;;15.21;74.94
61026;BME280;46911;32.650;-16.902;2023-03-13T07:26:34;102027.59;;;15.21;74.75
61026;BME280;46911;32.650;-16.902;2023-03-13T07:28:39;102016.50;;;15.13;75.09
61026;BME280;46911;32.650;-16.902;2023-03-13T07:30:40;102031.16;;;15.21;74.77
61026;BME280;46911;32.650;-16.902;2023-03-13T07:32:41;102031.03;;;15.23;74.65
61026;BME280;46911;32.650;-16.902;2023-03-13T07:34:42;102010.59;;;15.20;73.54
61026;BME280;46911;32.650;-16.902;2023-03-13T07:36:46;102030.25;;;15.35;73.47
61026;BME280;46911;32.650;-16.902;2023-03-13T07:38:48;102021.41;;;15.33;73.30
61026;BME280;46911;32.650;-16.902;2023-03-13T07:40:54;102035.06;;;15.43;72.88
61026;BME280;46911;32.650;-16.902;2023-03-13T07:42:55;102003.53;;;15.32;72.51
61026;BME280;46911;32.650;-16.902;2023-03-13T07:45:02;102037.25;;;15.51;72.39
61026;BME280;46911;32.650;-16.902;2023-03-13T07:47:05;102023.63;;;15.54;72.12
61026;BME280;46911;32.650;-16.902;2023-03-13T07:49:07;102039.09;;;15.63;72.40
61026;BME280;46911;32.650;-16.902;2023-03-13T07:51:18;102020.59;;;15.59;72.23
61026;BME280;46911;32.650;-16.902;2023-03-13T07:53:20;102043.09;;;15.70;72.16
61026;BME280;46911;32.650;-16.902;2023-03-13T07:55:23;102022.00;;;15.64;71.97
61026;BME280;46911;32.650;-16.902;2023-03-13T07:57:27;102046.72;;;15.84;71.53
61026;BME280;46911;32.650;-16.902;2023-03-13T07:59:30;102036.91;;;15.83;71.14
61026;BME280;46911;32.650;-16.902;2023-03-13T08:01:33;102048.84;;;16.04;70.50
61026;BME280;46911;32.650;-16.902;2023-03-13T08:03:37;102050.16;;;16.12;69.77
61026;BME280;46911;32.650;-16.902;2023-03-13T08:05:38;102051.69;;;16.16;69.31
61026;BME280;46911;32.650;-16.902;2023-03-13T08:07:39;102043.38;;;16.19;68.93
61026;BME280;46911;32.650;-16.902;2023-03-13T08:09:45;102066.66;;;16.33;68.63
61026;BME280;46911;32.650;-16.902;2023-03-13T08:11:49;102049.84;;;16.29;68.25
61026;BME280;46911;32.650;-16.902;2023-03-13T08:13:52;102050.25;;;16.36;68.43
61026;BME280;46911;32.650;-16.902;2023-03-13T08:16:07;102065.41;;;16.50;67.72
61026;BME280;46911;32.650;-16.902;2023-03-13T08:18:11;102074.13;;;16.66;67.10
61026;BME280;46911;32.650;-16.902;2023-03-13T08:20:15;102057.63;;;16.58;66.96
61026;BME280;46911;32.650;-16.902;2023-03-13T08:22:23;102051.38;;;16.70;66.69
61026;BME280;46911;32.650;-16.902;2023-03-13T08:24:29;102048.56;;;16.72;66.77
61026;BME280;46911;32.650;-16.902;2023-03-13T08:26:31;102074.94;;;16.93;67.00
61026;BME280;46911;32.650;-16.902;2023-03-13T08:28:32;102056.31;;;16.89;67.09
61026;BME280;46911;32.650;-16.902;2023-03-13T08:30:40;102056.47;;;16.99;66.87
61026;BME280;46911;32.650;-16.902;2023-03-13T08:32:41;102064.00;;;17.07;66.94
61026;BME280;46911;32.650;-16.902;2023-03-13T08:34:42;102078.81;;;17.26;67.00
61026;BME280;46911;32.650;-16.902;2023-03-13T08:36:43;102078.97;;;17.35;66.74
61026;BME280;46911;32.650;-16.902;2023-03-13T08:38:47;102071.88;;;17.34;66.52
61026;BME280;46911;32.650;-16.902;2023-03-13T08:40:52;102066.97;;;17.39;66.22
61026;BME280;46911;32.650;-16.902;2023-03-13T08:42:55;102064.34;;;17.51;65.81
61026;BME280;46911;32.650;-16.902;2023-03-13T08:45:01;102085.50;;;17.68;66.02
61026;BME280;46911;32.650;-16.902;2023-03-13T08:47:04;102094.38;;;17.82;65.80
61026;BME280;46911;32.650;-16.902;2023-03-13T08:49:11;102077.94;;;17.85;65.73
61026;BME280;46911;32.650;-16.902;2023-03-13T08:51:15;102106.03;;;18.06;65.56
61026;BME280;46911;32.650;-16.902;2023-03-13T08:53:18;102099.03;;;18.15;65.05
61026;BME280;46911;32.650;-16.902;2023-03-13T08:55:21;102105.31;;;18.38;64.79
61026;BME280;46911;32.650;-16.902;2023-03-13T08:57:24;102101.75;;;18.61;64.14
61026;BME280;46911;32.650;-16.902;2023-03-13T08:59:27;102073.41;;;18.55;64.00
61026;BME280;46911;32.650;-16.902;2023-03-13T09:01:30;102105.81;;;18.78;63.67
61026;BME280;46911;32.650;-16.902;2023-03-13T09:03:35;102096.34;;;18.83;63.76
61026;BME280;46911;32.650;-16.902;2023-03-13T09:05:38;102107.53;;;19.01;63.79
61026;BME280;46911;32.650;-16.902;2023-03-13T09:07:39;102104.03;;;19.22;63.54
61026;BME280;46911;32.650;-16.902;2023-03-13T09:09:44;102101.41;;;19.43;63.59
61026;BME280;46911;32.650;-16.902;2023-03-13T09:11:47;102120.47;;;19.74;63.14
61026;BME280;46911;32.650;-16.902;2023-03-13T09:13:50;102120.03;;;19.90;62.74
61026;BME280;46911;32.650;-16.902;2023-03-13T09:15:59;102127.56;;;20.07;62.51
61026;BME280;46911;32.650;-16.902;2023-03-13T09:18:00;102119.97;;;20.22;62.56
61026;BME280;46911;32.650;-16.902;2023-03-13T09:20:01;102131.91;;;20.41;62.43
61026;BME280;46911;32.650;-16.902;2023-03-13T09:22:03;102119.94;;;20.44;62.24
61026;BME280;46911;32.650;-16.902;2023-03-13T09:24:07;102140.81;;;20.74;62.04
61026;BME280;46911;32.650;-16.902;2023-03-13T09:26:08;102142.59;;;20.95;61.55
61026;BME280;46911;32.650;-16.902;2023-03-13T09:28:12;102147.63;;;21.19;61.30
61026;BME280;46911;32.650;-16.902;2023-03-13T09:30:13;102147.00;;;21.46;60.87
61026;BME280;46911;32.650;-16.902;2023-03-13T09:32:17;102153.31;;;21.76;60.71
61026;BME280;46911;32.650;-16.902;2023-03-13T09:34:20;102152.84;;;22.39;60.13
61026;BME280;46911;32.650;-16.902;2023-03-13T09:36:25;102146.47;;;22.96;57.47
61026;BME280;46911;32.650;-16.902;2023-03-13T09:38:27;102153.53;;;23.99;56.17
61026;BME280;46911;32.650;-16.902;2023-03-13T09:40:28;102153.13;;;24.64;52.90
61026;BME280;46911;32.650;-16.902;2023-03-13T09:44:52;102147.31;;;25.61;50.50
61026;BME280;46911;32.650;-16.902;2023-03-13T09:49:38;102157.38;;;26.43;49.43
61026;BME280;46911;32.650;-16.902;2023-03-13T09:51:42;102156.72;;;26.08;49.54
61026;BME280;46911;32.650;-16.902;2023-03-13T09:56:03;102175.78;;;24.99;53.09
61026;BME280;46911;32.650;-16.902;2023-03-13T09:58:12;102170.91;;;25.95;49.97
61026;BME280;46911;32.650;-16.902;2023-03-13T10:02:34;102172.66;;;26.85;47.39
61026;BME280;46911;32.650;-16.902;2023-03-13T10:04:59;102176.19;;;27.65;44.88
61026;BME280;46911;32.650;-16.902;2023-03-13T10:07:07;102159.66;;;27.19;46.24
61026;BME280;46911;32.650;-16.902;2023-03-13T10:09:27;102176.72;;;26.17;49.11
61026;BME280;46911;32.650;-16.902;2023-03-13T10:11:40;102183.19;;;26.49;48.53
61026;BME280;46911;32.650;-16.902;2023-03-13T10:13:45;102192.19;;;25.50;49.44
61026;BME280;46911;32.650;-16.902;2023-03-13T10:15:59;102188.78;;;26.72;47.34
61026;BME280;46911;32.650;-16.902;2023-03-13T10:18:19;102196.00;;;27.04;45.12
61026;BME280;46911;32.650;-16.902;2023-03-13T10:20:31;102178.25;;;28.10;43.78
61026;BME280;46911;32.650;-16.902;2023-03-13T10:22:37;102171.25;;;27.84;43.35
61026;BME280;46911;32.650;-16.902;2023-03-13T10:24:45;102197.09;;;27.66;43.63
61026;BME280;46911;32.650;-16.902;2023-03-13T10:26:55;102178.94;;;27.42;43.80
61026;BME280;46911;32.650;-16.902;2023-03-13T10:29:01;102201.94;;;26.68;45.93
61026;BME280;46911;32.650;-16.902;2023-03-13T10:31:19;102202.69;;;26.29;47.39
61026;BME280;46911;32.650;-16.902;2023-03-13T10:33:25;102207.41;;;25.10;50.31
61026;BME280;46911;32.650;-16.902;2023-03-13T10:35:38;102211.59;;;24.44;51.53
61026;BME280;46911;32.650;-16.902;2023-03-13T10:37:44;102195.97;;;23.55;54.45
61026;BME280;46911;32.650;-16.902;2023-03-13T10:39:45;102194.34;;;23.17;54.96
61026;BME280;46911;32.650;-16.902;2023-03-13T10:41:48;102221.44;;;23.64;54.77
61026;BME280;46911;32.650;-16.902;2023-03-13T10:43:59;102191.88;;;23.69;53.96
61026;BME280;46911;32.650;-16.902;2023-03-13T10:46:00;102191.63;;;23.81;53.61
61026;BME280;46911;32.650;-16.902;2023-03-13T10:50:21;102204.06;;;23.93;52.66
61026;BME280;46911;32.650;-16.902;2023-03-13T10:52:40;102196.03;;;24.10;52.06
61026;BME280;46911;32.650;-16.902;2023-03-13T10:54:45;102203.97;;;24.65;51.72
61026;BME280;46911;32.650;-16.902;2023-03-13T10:59:24;102185.84;;;26.90;45.87
61026;BME280;46911;32.650;-16.902;2023-03-13T11:01:39;102190.34;;;27.46;43.97
61026;BME280;46911;32.650;-16.902;2023-03-13T11:03:45;102192.63;;;27.65;43.29
61026;BME280;46911;32.650;-16.902;2023-03-13T11:06:00;102204.53;;;27.18;44.67
61026;BME280;46911;32.650;-16.902;2023-03-13T11:08:22;102198.16;;;27.26;44.39
61026;BME280;46911;32.650;-16.902;2023-03-13T11:10:31;102188.66;;;27.91;43.66
61026;BME280;46911;32.650;-16.902;2023-03-13T11:12:47;102196.66;;;27.78;43.97